createdAt,value
2023-05-21T00:02:20.065Z,74.81
2023-05-21T00:04:46.883Z,74.99
2023-05-21T00:07:13.474Z,75.78
2023-05-21T00:09:40.035Z,75.56
2023-05-21T00:12:10.117Z,75.16
2023-05-21T00:14:36.696Z,75.79
2023-05-21T00:17:03.259Z,76.38
2023-05-21T00:19:29.930Z,76.83
2023-05-21T00:21:57.658Z,77.41
2023-05-21T00:24:24.266Z,77.60
2023-05-21T00:26:50.976Z,78.33
2023-05-21T00:29:17.811Z,78.63
2023-05-21T00:31:44.436Z,78.00
2023-05-21T00:34:10.985Z,78.32
2023-05-21T00:36:38.050Z,78.66
2023-05-21T00:39:05.744Z,79.01
2023-05-21T00:41:32.263Z,79.40
2023-05-21T00:44:00.358Z,78.50
2023-05-21T00:46:28.536Z,77.90
2023-05-21T00:48:55.122Z,78.87
2023-05-21T00:51:21.978Z,78.88
2023-05-21T00:53:51.367Z,79.19
2023-05-21T00:56:19.383Z,78.23
2023-05-21T00:58:46.031Z,78.75
2023-05-21T01:01:13.982Z,78.83
2023-05-21T01:03:41.039Z,78.82
2023-05-21T01:06:08.952Z,78.67
2023-05-21T01:08:36.241Z,78.76
2023-05-21T01:11:02.936Z,79.39
2023-05-21T01:13:29.641Z,79.68
2023-05-21T01:15:58.020Z,79.86
2023-05-21T01:18:24.545Z,80.05
2023-05-21T01:20:52.545Z,79.38
2023-05-21T01:23:19.435Z,79.61
2023-05-21T01:25:46.348Z,80.01
2023-05-21T01:28:13.383Z,79.72
2023-05-21T01:30:40.400Z,79.44
2023-05-21T01:33:32.578Z,79.87
2023-05-21T01:36:16.071Z,79.80
2023-05-21T01:38:44.834Z,80.00
2023-05-21T01:41:11.559Z,79.94
2023-05-21T01:43:39.409Z,79.78
2023-05-21T01:46:06.311Z,80.56
2023-05-21T01:48:32.845Z,80.49
2023-05-21T01:51:00.961Z,79.90
2023-05-21T01:53:27.534Z,80.72
2023-05-21T01:55:54.577Z,81.13
2023-05-21T01:58:22.719Z,81.76
2023-05-21T02:00:51.103Z,82.03
2023-05-21T02:03:18.800Z,81.78
2023-05-21T02:05:45.821Z,80.65
2023-05-21T02:08:12.912Z,81.04
2023-05-21T02:10:39.423Z,81.81
2023-05-21T02:13:05.938Z,82.62
2023-05-21T02:15:34.883Z,83.16
2023-05-21T02:18:01.774Z,83.07
2023-05-21T02:20:28.400Z,82.56
2023-05-21T02:22:55.023Z,82.12
2023-05-21T02:25:21.551Z,83.34
2023-05-21T02:27:48.151Z,83.08
2023-05-21T02:30:15.543Z,83.50
2023-05-21T02:32:43.035Z,83.92
2023-05-21T02:35:11.246Z,84.61
2023-05-21T02:37:37.879Z,84.28
2023-05-21T02:40:05.934Z,84.90
2023-05-21T02:42:32.464Z,84.47
2023-05-21T02:44:59.040Z,84.95
2023-05-21T02:47:25.865Z,85.14
2023-05-21T02:49:53.017Z,85.36
2023-05-21T02:52:19.933Z,87.13
2023-05-21T02:54:46.974Z,87.62
2023-05-21T02:57:13.570Z,86.65
2023-05-21T02:59:40.148Z,85.73
2023-05-21T03:02:06.872Z,85.48
2023-05-21T03:04:39.228Z,85.18
2023-05-21T03:07:06.158Z,85.08
2023-05-21T03:09:32.674Z,84.22
2023-05-21T03:11:59.233Z,84.39
2023-05-21T03:14:25.837Z,84.95
2023-05-21T03:16:52.470Z,85.31
2023-05-21T03:19:19.148Z,84.65
2023-05-21T03:21:45.774Z,85.06
2023-05-21T03:24:13.712Z,84.16
2023-05-21T03:26:40.274Z,84.60
2023-05-21T03:29:06.890Z,84.46
2023-05-21T03:31:33.477Z,85.07
2023-05-21T03:34:00.036Z,85.74
2023-05-21T03:36:26.611Z,86.67
2023-05-21T03:38:53.120Z,86.65
2023-05-21T03:41:19.675Z,86.76
2023-05-21T03:43:46.225Z,86.31
2023-05-21T03:46:12.734Z,86.01
2023-05-21T03:48:39.306Z,86.38
2023-05-21T03:51:05.928Z,87.00
2023-05-21T03:53:33.653Z,85.40
2023-05-21T03:56:00.160Z,85.46
2023-05-21T03:58:26.878Z,84.49
2023-05-21T04:00:53.492Z,84.63
2023-05-21T04:03:20.163Z,84.04
2023-05-21T04:05:46.763Z,83.96
2023-05-21T04:08:13.549Z,83.93
2023-05-21T04:10:40.110Z,83.77
2023-05-21T04:13:06.799Z,83.37
2023-05-21T04:15:34.731Z,83.93
2023-05-21T04:18:01.611Z,83.86
2023-05-21T04:20:28.265Z,83.32
2023-05-21T04:22:54.816Z,82.62
2023-05-21T04:25:22.996Z,82.90
2023-05-21T04:27:50.219Z,82.79
2023-05-21T04:30:16.770Z,82.17
2023-05-21T04:32:45.885Z,82.52
2023-05-21T04:35:15.145Z,82.09
2023-05-21T04:37:42.168Z,81.51
2023-05-21T04:40:09.677Z,82.12
2023-05-21T04:42:36.332Z,81.53
2023-05-21T04:45:02.902Z,81.17
2023-05-21T04:47:35.492Z,81.37
2023-05-21T04:50:02.566Z,80.46
2023-05-21T04:52:29.088Z,81.44
2023-05-21T04:54:55.684Z,80.13
2023-05-21T04:57:24.557Z,80.22
2023-05-21T04:59:51.113Z,79.52
2023-05-21T05:02:17.617Z,79.69
2023-05-21T05:04:44.179Z,79.33
2023-05-21T05:07:10.749Z,79.54
2023-05-21T05:09:37.309Z,79.67
2023-05-21T05:12:04.169Z,78.98
2023-05-21T05:14:31.047Z,78.96
2023-05-21T05:17:00.620Z,79.83
2023-05-21T05:19:27.422Z,79.65
2023-05-21T05:21:54.214Z,78.32
2023-05-21T05:24:20.882Z,78.19
2023-05-21T05:26:47.552Z,77.26
2023-05-21T05:29:14.082Z,78.38
2023-05-21T05:31:40.641Z,78.06
2023-05-21T05:34:07.262Z,77.19
2023-05-21T05:36:33.788Z,77.76
2023-05-21T05:39:00.336Z,78.00
2023-05-21T05:41:27.221Z,76.15
2023-05-21T05:43:53.742Z,76.62
2023-05-21T05:46:20.410Z,75.48
2023-05-21T05:48:47.001Z,74.13
2023-05-21T05:51:15.289Z,75.22
2023-05-21T05:53:41.818Z,74.88
2023-05-21T05:56:08.412Z,73.66
2023-05-21T05:58:34.943Z,73.73
2023-05-21T06:01:02.185Z,74.03
2023-05-21T06:03:29.783Z,75.03
2023-05-21T06:05:56.433Z,76.23
2023-05-21T06:08:23.352Z,76.15
2023-05-21T06:10:50.022Z,73.57
2023-05-21T06:13:16.532Z,72.95
2023-05-21T06:15:43.398Z,74.49
2023-05-21T06:18:10.156Z,74.78
2023-05-21T06:20:37.128Z,73.19
2023-05-21T06:23:03.693Z,75.53
2023-05-21T06:25:30.256Z,73.56
2023-05-21T06:27:56.905Z,72.64
2023-05-21T06:30:23.395Z,72.69
2023-05-21T06:32:50.093Z,71.43
2023-05-21T06:35:16.770Z,71.63
2023-05-21T06:37:43.305Z,72.03
2023-05-21T06:40:10.140Z,72.36
2023-05-21T06:42:36.718Z,72.37
2023-05-21T06:45:03.415Z,72.05
2023-05-21T06:47:30.013Z,70.96
2023-05-21T06:49:56.641Z,72.00
2023-05-21T06:52:23.203Z,71.65
2023-05-21T06:54:49.738Z,71.48
2023-05-21T06:57:16.313Z,70.71
2023-05-21T06:59:42.883Z,71.16
2023-05-21T07:02:09.489Z,71.23
2023-05-21T07:04:36.399Z,71.29
2023-05-21T07:07:05.054Z,72.44
2023-05-21T07:09:31.800Z,72.24
2023-05-21T07:11:58.337Z,71.87
2023-05-21T07:14:27.687Z,69.90
2023-05-21T07:16:54.269Z,71.71
2023-05-21T07:19:21.199Z,69.49
2023-05-21T07:21:47.800Z,70.16
2023-05-21T07:24:14.319Z,69.05
2023-05-21T07:26:41.116Z,69.48
2023-05-21T07:29:07.655Z,69.32
2023-05-21T07:31:34.391Z,67.43
2023-05-21T07:34:01.058Z,68.06
2023-05-21T07:36:27.669Z,65.73
2023-05-21T07:38:54.820Z,66.79
2023-05-21T07:41:22.045Z,65.57
2023-05-21T07:43:48.714Z,65.02
2023-05-21T07:46:15.254Z,63.60
2023-05-21T07:48:41.845Z,63.54
2023-05-21T07:51:08.372Z,63.45
2023-05-21T07:53:35.020Z,63.18
2023-05-21T07:56:01.530Z,62.94
2023-05-21T07:58:28.023Z,62.12
2023-05-21T08:00:54.684Z,62.74
2023-05-21T08:03:21.340Z,60.52
2023-05-21T08:05:50.931Z,61.17
2023-05-21T08:08:22.016Z,60.33
2023-05-21T08:10:48.629Z,63.27
2023-05-21T08:13:15.818Z,61.99
2023-05-21T08:15:42.380Z,63.57
2023-05-21T08:18:09.131Z,61.76
2023-05-21T08:20:35.657Z,62.75
2023-05-21T08:23:02.210Z,61.39
2023-05-21T08:25:28.842Z,62.32
2023-05-21T08:27:55.558Z,60.08
2023-05-21T08:30:22.212Z,63.06
2023-05-21T08:32:48.999Z,63.41
2023-05-21T08:35:15.579Z,62.84
2023-05-21T08:37:42.203Z,62.23
2023-05-21T08:40:09.295Z,63.54
2023-05-21T08:42:46.691Z,62.87
2023-05-21T08:45:14.073Z,63.48
2023-05-21T08:47:44.166Z,65.13
2023-05-21T08:50:12.086Z,64.81
2023-05-21T08:52:38.637Z,64.40
2023-05-21T08:55:05.997Z,65.26
2023-05-21T08:57:32.668Z,64.43
2023-05-21T08:59:59.686Z,63.22
2023-05-21T09:02:26.282Z,64.62
2023-05-21T09:04:57.191Z,64.98
2023-05-21T09:07:30.484Z,65.49
2023-05-21T09:09:58.307Z,65.19
2023-05-21T09:12:25.548Z,62.58
2023-05-21T09:14:52.140Z,63.82
2023-05-21T09:17:20.271Z,61.49
2023-05-21T09:20:16.036Z,61.27
2023-05-21T09:22:46.412Z,59.04
2023-05-21T09:25:17.119Z,60.84
2023-05-21T09:27:43.722Z,61.79
2023-05-21T09:30:11.836Z,59.61
2023-05-21T09:32:41.428Z,60.47
2023-05-21T09:35:14.181Z,58.21
2023-05-21T09:37:45.095Z,59.40
2023-05-21T09:40:13.199Z,58.11
2023-05-21T09:42:40.597Z,60.07
2023-05-21T09:45:10.439Z,55.97
2023-05-21T09:47:46.168Z,57.86
2023-05-21T09:50:33.296Z,55.31
2023-05-21T09:52:59.837Z,54.34
2023-05-21T09:55:26.585Z,53.31
2023-05-21T09:57:53.241Z,53.31
2023-05-21T10:00:21.542Z,54.03
2023-05-21T10:02:49.249Z,52.52
2023-05-21T10:05:16.551Z,53.28
2023-05-21T10:07:45.597Z,53.04
2023-05-21T10:10:14.045Z,50.82
2023-05-21T10:12:47.348Z,52.57
2023-05-21T10:15:16.250Z,52.99
2023-05-21T10:17:43.520Z,48.95
2023-05-21T10:20:13.093Z,51.23
2023-05-21T10:22:40.416Z,49.27
2023-05-21T10:25:08.100Z,49.38
2023-05-21T10:27:37.681Z,47.59
2023-05-21T10:30:05.725Z,49.12
2023-05-21T10:32:32.670Z,49.36
2023-05-21T10:35:01.457Z,47.77
2023-05-21T10:37:28.561Z,47.52
2023-05-21T10:39:55.741Z,48.41
2023-05-21T10:42:31.344Z,48.05
2023-05-21T10:45:08.786Z,46.54
2023-05-21T10:48:19.639Z,46.38
2023-05-21T10:51:01.668Z,45.38
2023-05-21T10:53:55.715Z,44.76
2023-05-21T10:56:32.874Z,45.08
2023-05-21T10:59:12.456Z,43.93
2023-05-21T11:01:40.019Z,46.23
2023-05-21T11:04:06.678Z,45.24
2023-05-21T11:06:33.267Z,48.34
2023-05-21T11:09:15.396Z,44.06
2023-05-21T11:11:42.884Z,47.27
2023-05-21T11:14:38.852Z,48.68
2023-05-21T11:17:08.121Z,45.21
2023-05-21T11:19:39.022Z,45.05
2023-05-21T11:22:22.010Z,47.99
2023-05-21T11:24:50.880Z,44.45
2023-05-21T11:27:44.129Z,45.46
2023-05-21T11:30:15.546Z,47.41
2023-05-21T11:33:07.352Z,43.22
2023-05-21T11:35:46.152Z,46.45
2023-05-21T11:38:12.714Z,46.85
2023-05-21T11:40:46.566Z,44.45
2023-05-21T11:43:13.091Z,45.09
2023-05-21T11:45:39.603Z,45.95
2023-05-21T11:48:06.773Z,46.66
2023-05-21T11:50:34.166Z,46.67
2023-05-21T11:53:00.863Z,46.86
2023-05-21T11:55:27.473Z,47.27
2023-05-21T11:57:54.565Z,46.02
2023-05-21T12:00:21.673Z,45.86
2023-05-21T12:02:52.998Z,45.92
2023-05-21T12:05:20.394Z,48.16
2023-05-21T12:07:48.925Z,46.29
2023-05-21T12:10:15.638Z,49.65
2023-05-21T12:12:53.777Z,46.69
2023-05-21T12:15:22.742Z,48.16
2023-05-21T12:17:50.142Z,49.88
2023-05-21T12:20:17.122Z,45.79
2023-05-21T12:22:44.707Z,45.20
2023-05-21T12:25:12.135Z,45.37
2023-05-21T12:27:38.710Z,45.80
2023-05-21T12:30:05.869Z,42.61
2023-05-21T12:32:32.510Z,41.94
2023-05-21T12:34:59.099Z,43.79
2023-05-21T12:37:26.892Z,45.84
2023-05-21T12:39:54.508Z,41.21
2023-05-21T12:42:28.197Z,45.88
2023-05-21T12:44:54.811Z,45.33
2023-05-21T12:47:26.581Z,46.22
2023-05-21T12:50:03.813Z,45.20
2023-05-21T12:52:33.242Z,43.80
2023-05-21T12:54:59.875Z,42.84
2023-05-21T12:57:37.104Z,42.60
2023-05-21T13:00:06.484Z,40.70
2023-05-21T13:02:35.183Z,41.34
2023-05-21T13:05:05.585Z,46.68
2023-05-21T13:07:33.008Z,42.91
2023-05-21T13:09:59.794Z,41.69
2023-05-21T13:12:27.605Z,40.05
2023-05-21T13:14:55.601Z,41.79
2023-05-21T13:17:22.322Z,39.95
2023-05-21T13:20:14.245Z,39.78
2023-05-21T13:22:42.497Z,39.94
2023-05-21T13:25:15.791Z,40.10
2023-05-21T13:27:42.760Z,43.42
2023-05-21T13:30:11.326Z,42.16
2023-05-21T13:32:38.474Z,42.27
2023-05-21T13:35:05.496Z,43.32
2023-05-21T13:37:32.246Z,40.74
2023-05-21T13:39:58.890Z,46.67
2023-05-21T13:42:25.483Z,44.93
2023-05-21T13:44:52.028Z,44.87
2023-05-21T13:47:18.706Z,42.50
2023-05-21T13:49:45.387Z,42.07
2023-05-21T13:52:11.907Z,42.07
2023-05-21T13:54:38.514Z,42.86
2023-05-21T13:57:05.101Z,43.03
2023-05-21T13:59:33.701Z,42.22
2023-05-21T14:02:00.876Z,42.88
2023-05-21T14:04:27.430Z,42.58
2023-05-21T14:06:54.034Z,44.74
2023-05-21T14:09:21.363Z,40.85
2023-05-21T14:11:47.903Z,40.36
2023-05-21T14:14:18.789Z,43.75
2023-05-21T14:16:47.178Z,40.02
2023-05-21T14:19:13.965Z,40.42
2023-05-21T14:21:40.944Z,39.61
2023-05-21T14:24:07.732Z,37.83
2023-05-21T14:26:36.652Z,37.66
2023-05-21T14:29:03.203Z,38.50
2023-05-21T14:31:29.910Z,36.95
2023-05-21T14:33:56.457Z,38.68
2023-05-21T14:36:22.970Z,36.11
2023-05-21T14:38:49.516Z,36.63
2023-05-21T14:41:16.042Z,37.43
2023-05-21T14:43:42.580Z,34.83
2023-05-21T14:46:09.143Z,36.67
2023-05-21T14:48:35.849Z,38.61
2023-05-21T14:51:02.357Z,42.25
2023-05-21T14:53:28.987Z,37.73
2023-05-21T14:55:55.604Z,37.71
2023-05-21T14:58:22.142Z,38.02
2023-05-21T15:00:48.883Z,36.55
2023-05-21T15:03:16.290Z,39.27
2023-05-21T15:05:42.847Z,35.46
2023-05-21T15:08:09.739Z,36.39
2023-05-21T15:10:36.261Z,36.92
2023-05-21T15:13:02.828Z,35.97
2023-05-21T15:15:29.387Z,36.52
2023-05-21T15:17:57.661Z,35.70
2023-05-21T15:20:24.358Z,38.83
2023-05-21T15:22:52.348Z,36.61
2023-05-21T15:25:21.678Z,37.35
2023-05-21T15:27:50.386Z,39.93
2023-05-21T15:30:17.269Z,39.45
2023-05-21T15:32:43.882Z,38.78
2023-05-21T15:35:10.590Z,39.22
2023-05-21T15:37:37.224Z,36.46
2023-05-21T15:40:04.103Z,39.73
2023-05-21T15:42:31.813Z,38.59
2023-05-21T15:44:58.643Z,37.77
2023-05-21T15:47:25.178Z,39.02
2023-05-21T15:49:51.882Z,38.33
2023-05-21T15:52:19.821Z,36.41
2023-05-21T15:54:46.962Z,38.73
2023-05-21T15:57:13.509Z,36.20
2023-05-21T15:59:40.182Z,36.50
2023-05-21T16:02:07.270Z,38.23
2023-05-21T16:04:33.916Z,38.52
2023-05-21T16:07:00.535Z,38.40
2023-05-21T16:09:27.079Z,38.23
2023-05-21T16:11:53.600Z,38.27
2023-05-21T16:14:20.360Z,38.42
2023-05-21T16:16:46.931Z,39.74
2023-05-21T16:19:13.488Z,41.84
2023-05-21T16:21:40.120Z,41.78
2023-05-21T16:24:06.770Z,40.87
2023-05-21T16:26:33.262Z,39.78
2023-05-21T16:29:02.289Z,39.41
2023-05-21T16:31:28.991Z,39.59
2023-05-21T16:33:55.850Z,38.91
2023-05-21T16:36:22.618Z,39.17
2023-05-21T16:38:49.322Z,37.38
2023-05-21T16:41:16.262Z,39.67
2023-05-21T16:43:42.840Z,37.28
2023-05-21T16:46:09.397Z,38.08
2023-05-21T16:48:38.039Z,40.66
2023-05-21T16:51:05.001Z,39.63
2023-05-21T16:53:31.779Z,41.68
2023-05-21T16:55:58.970Z,40.56
2023-05-21T16:58:25.628Z,38.51
2023-05-21T17:00:52.163Z,41.94
2023-05-21T17:03:19.000Z,40.79
2023-05-21T17:05:45.667Z,41.23
2023-05-21T17:08:12.467Z,42.01
2023-05-21T17:10:40.210Z,41.93
2023-05-21T17:13:20.943Z,42.49
2023-05-21T17:15:48.848Z,42.44
2023-05-21T17:18:15.735Z,45.69
2023-05-21T17:20:43.672Z,45.88
2023-05-21T17:23:11.476Z,44.07
2023-05-21T17:25:38.236Z,45.21
2023-05-21T17:28:05.166Z,47.16
2023-05-21T17:30:31.779Z,46.01
2023-05-21T17:32:58.440Z,45.84
2023-05-21T17:35:25.089Z,44.71
2023-05-21T17:37:53.248Z,48.79
2023-05-21T17:40:21.469Z,45.96
2023-05-21T17:42:48.538Z,46.98
2023-05-21T17:45:15.092Z,50.40
2023-05-21T17:47:41.700Z,47.50
2023-05-21T17:50:08.767Z,49.66
2023-05-21T17:52:35.359Z,49.52
2023-05-21T17:55:02.005Z,49.14
2023-05-21T17:57:28.629Z,51.44
2023-05-21T17:59:55.606Z,51.52
2023-05-21T18:02:23.638Z,53.88
2023-05-21T18:04:50.349Z,55.58
2023-05-21T18:07:17.384Z,55.15
2023-05-21T18:09:43.954Z,55.25
2023-05-21T18:12:10.986Z,57.09
2023-05-21T18:14:37.552Z,58.20
2023-05-21T18:17:04.305Z,59.18
2023-05-21T18:19:31.458Z,60.34
2023-05-21T18:21:58.108Z,61.58
2023-05-21T18:24:24.950Z,62.64
2023-05-21T18:26:51.568Z,63.94
2023-05-21T18:29:18.152Z,64.05
2023-05-21T18:31:45.577Z,65.15
2023-05-21T18:34:12.299Z,66.48
2023-05-21T18:36:39.070Z,67.30
2023-05-21T18:39:07.033Z,67.09
2023-05-21T18:41:33.699Z,67.73
2023-05-21T18:44:01.728Z,68.25
2023-05-21T18:46:28.833Z,70.83
2023-05-21T18:48:55.988Z,73.20
2023-05-21T18:51:22.606Z,74.51
2023-05-21T18:53:49.204Z,73.24
2023-05-21T18:56:15.830Z,74.60
2023-05-21T18:58:42.353Z,75.50
2023-05-21T19:01:08.928Z,74.06
2023-05-21T19:03:35.428Z,73.96
2023-05-21T19:06:02.061Z,75.06
2023-05-21T19:08:28.793Z,74.41
2023-05-21T19:10:55.344Z,75.72
2023-05-21T19:13:22.468Z,75.88
2023-05-21T19:15:49.124Z,77.22
2023-05-21T19:18:17.150Z,76.34
2023-05-21T19:20:43.784Z,76.83
2023-05-21T19:23:10.587Z,77.89
2023-05-21T19:25:37.508Z,78.03
2023-05-21T19:28:04.076Z,78.88
2023-05-21T19:30:30.759Z,78.30
2023-05-21T19:32:57.469Z,78.35
2023-05-21T19:35:24.152Z,80.68
2023-05-21T19:37:50.893Z,79.82
2023-05-21T19:40:17.783Z,78.65
2023-05-21T19:42:44.743Z,79.05
2023-05-21T19:45:11.852Z,79.15
2023-05-21T19:47:40.992Z,79.02
2023-05-21T19:50:08.215Z,79.43
2023-05-21T19:52:35.316Z,79.71
2023-05-21T19:55:05.652Z,79.59
2023-05-21T19:57:32.524Z,80.08
2023-05-21T19:59:59.182Z,80.56
2023-05-21T20:02:25.865Z,78.72
2023-05-21T20:04:53.426Z,80.03
2023-05-21T20:07:19.998Z,80.23
2023-05-21T20:09:46.603Z,78.80
2023-05-21T20:12:13.136Z,79.91
2023-05-21T20:14:39.713Z,79.58
2023-05-21T20:17:07.037Z,80.85
2023-05-21T20:19:34.341Z,81.18
2023-05-21T20:22:00.984Z,79.62
2023-05-21T20:24:27.525Z,81.35
2023-05-21T20:26:54.881Z,81.30
2023-05-21T20:29:21.442Z,80.94
2023-05-21T20:31:47.986Z,81.77
2023-05-21T20:34:17.508Z,82.07
2023-05-21T20:36:44.076Z,81.76
2023-05-21T20:39:12.031Z,81.49
2023-05-21T20:41:38.777Z,82.18
2023-05-21T20:44:05.733Z,83.06
2023-05-21T20:46:32.766Z,82.53
2023-05-21T20:48:59.955Z,82.08
2023-05-21T20:51:27.292Z,82.94
2023-05-21T20:53:53.872Z,82.92
2023-05-21T20:56:29.865Z,83.45
2023-05-21T20:59:08.584Z,83.81
2023-05-21T21:01:37.864Z,82.94
2023-05-21T21:04:05.001Z,82.27
2023-05-21T21:06:31.899Z,83.50
2023-05-21T21:08:58.617Z,84.23
2023-05-21T21:11:25.234Z,83.08
2023-05-21T21:13:52.009Z,83.78
2023-05-21T21:16:18.661Z,85.66
2023-05-21T21:18:47.037Z,84.46
2023-05-21T21:21:13.802Z,85.43
2023-05-21T21:23:40.460Z,85.70
2023-05-21T21:26:07.176Z,85.28
2023-05-21T21:28:33.967Z,87.00
2023-05-21T21:31:00.586Z,87.61
2023-05-21T21:33:28.336Z,88.06
2023-05-21T21:35:55.046Z,88.98
2023-05-21T21:38:21.637Z,89.76
2023-05-21T21:40:48.201Z,90.62
2023-05-21T21:43:14.836Z,90.99
2023-05-21T21:45:41.454Z,90.66
2023-05-21T21:48:08.062Z,90.19
2023-05-21T21:50:34.678Z,89.38
2023-05-21T21:53:03.469Z,90.24
2023-05-21T21:55:30.049Z,88.53
2023-05-21T21:57:56.700Z,89.82
2023-05-21T22:00:26.552Z,88.21
2023-05-21T22:02:53.793Z,89.23
2023-05-21T22:05:20.410Z,89.57
2023-05-21T22:07:47.134Z,89.44
2023-05-21T22:10:15.158Z,90.42
2023-05-21T22:12:42.030Z,90.59
2023-05-21T22:15:10.981Z,89.75
2023-05-21T22:17:38.289Z,89.08
2023-05-21T22:20:05.947Z,89.67
2023-05-21T22:22:32.503Z,88.95
2023-05-21T22:24:59.005Z,90.38
2023-05-21T22:27:25.642Z,91.60
2023-05-21T22:29:52.176Z,90.29
2023-05-21T22:32:18.749Z,90.94
2023-05-21T22:34:45.631Z,90.25
2023-05-21T22:37:12.498Z,92.34
2023-05-21T22:39:39.170Z,91.59
2023-05-21T22:42:06.085Z,92.37
2023-05-21T22:44:32.647Z,91.10
2023-05-21T22:47:00.905Z,90.93
2023-05-21T22:49:28.078Z,91.02
2023-05-21T22:51:54.578Z,91.77
2023-05-21T22:54:21.627Z,90.96
2023-05-21T22:56:49.336Z,92.14
2023-05-21T22:59:15.903Z,91.25
2023-05-21T23:01:42.479Z,91.65
2023-05-21T23:04:09.077Z,90.46
2023-05-21T23:06:35.601Z,90.44
2023-05-21T23:09:02.119Z,91.46
2023-05-21T23:11:28.638Z,91.67
2023-05-21T23:13:55.136Z,92.01
2023-05-21T23:16:22.630Z,92.12
2023-05-21T23:18:50.001Z,91.62
2023-05-21T23:21:17.075Z,92.61
2023-05-21T23:23:43.671Z,92.80
2023-05-21T23:26:10.229Z,93.51
2023-05-21T23:28:37.178Z,94.19
2023-05-21T23:31:03.753Z,93.31
2023-05-21T23:33:30.510Z,92.14
2023-05-21T23:35:57.059Z,91.79
2023-05-21T23:38:24.179Z,91.39
2023-05-21T23:40:51.071Z,90.98
2023-05-21T23:43:17.662Z,92.34
2023-05-21T23:45:44.527Z,91.83
2023-05-21T23:48:11.950Z,92.50
2023-05-21T23:50:38.619Z,92.17
2023-05-21T23:53:05.338Z,91.62
2023-05-21T23:55:32.086Z,91.45
2023-05-21T23:57:58.600Z,91.44
